sensor_id;sensor_type;location;lat;lon;timestamp;P1;durP1;ratioP1;P2;durP2;ratioP2
25207;SDS011;13153;52.316;21.166;2022-12-18T00:01:22;43.60;;;20.83;;
25207;SDS011;13153;52.316;21.166;2022-12-18T00:03:58;43.45;;;20.63;;
25207;SDS011;13153;52.316;21.166;2022-12-18T00:06:26;48.92;;;22.08;;
25207;SDS011;13153;52.316;21.166;2022-12-18T00:08:55;51.00;;;22.38;;
25207;SDS011;13153;52.316;21.166;2022-12-18T00:11:23;46.65;;;21.77;;
25207;SDS011;13153;52.316;21.166;2022-12-18T00:13:53;54.03;;;23.10;;
25207;SDS011;13153;52.316;21.166;2022-12-18T00:16:22;48.58;;;22.52;;
25207;SDS011;13153;52.316;21.166;2022-12-18T00:18:50;47.58;;;22.83;;
25207;SDS011;13153;52.316;21.166;2022-12-18T00:21:21;47.30;;;23.40;;
25207;SDS011;13153;52.316;21.166;2022-12-18T00:23:48;46.72;;;22.20;;
25207;SDS011;13153;52.316;21.166;2022-12-18T00:26:25;50.88;;;23.58;;
25207;SDS011;13153;52.316;21.166;2022-12-18T00:28:54;46.10;;;21.40;;
25207;SDS011;13153;52.316;21.166;2022-12-18T00:33:54;45.05;;;20.30;;
25207;SDS011;13153;52.316;21.166;2022-12-18T00:36:22;41.50;;;19.70;;
25207;SDS011;13153;52.316;21.166;2022-12-18T00:38:52;41.85;;;19.45;;
25207;SDS011;13153;52.316;21.166;2022-12-18T00:41:20;44.03;;;19.90;;
25207;SDS011;13153;52.316;21.166;2022-12-18T00:44:05;44.55;;;21.02;;
25207;SDS011;13153;52.316;21.166;2022-12-18T00:46:34;43.20;;;20.70;;
25207;SDS011;13153;52.316;21.166;2022-12-18T00:49:00;45.97;;;20.20;;
25207;SDS011;13153;52.316;21.166;2022-12-18T00:51:27;47.83;;;21.48;;
25207;SDS011;13153;52.316;21.166;2022-12-18T00:53:53;47.22;;;21.35;;
25207;SDS011;13153;52.316;21.166;2022-12-18T00:56:19;45.53;;;21.13;;
25207;SDS011;13153;52.316;21.166;2022-12-18T00:58:44;46.47;;;21.67;;
25207;SDS011;13153;52.316;21.166;2022-12-18T01:01:10;46.20;;;21.17;;
25207;SDS011;13153;52.316;21.166;2022-12-18T01:03:36;44.88;;;21.08;;
25207;SDS011;13153;52.316;21.166;2022-12-18T01:06:05;49.67;;;23.02;;
25207;SDS011;13153;52.316;21.166;2022-12-18T01:08:33;50.25;;;23.38;;
25207;SDS011;13153;52.316;21.166;2022-12-18T01:11:00;49.38;;;22.58;;
25207;SDS011;13153;52.316;21.166;2022-12-18T01:13:32;53.35;;;23.73;;
25207;SDS011;13153;52.316;21.166;2022-12-18T01:15:59;45.90;;;22.08;;
25207;SDS011;13153;52.316;21.166;2022-12-18T01:18:25;46.63;;;21.83;;
25207;SDS011;13153;52.316;21.166;2022-12-18T01:20:50;50.25;;;21.30;;
25207;SDS011;13153;52.316;21.166;2022-12-18T01:23:16;48.42;;;22.45;;
25207;SDS011;13153;52.316;21.166;2022-12-18T01:25:42;54.90;;;23.63;;
25207;SDS011;13153;52.316;21.166;2022-12-18T01:28:08;48.65;;;22.65;;
25207;SDS011;13153;52.316;21.166;2022-12-18T01:30:33;48.88;;;21.98;;
25207;SDS011;13153;52.316;21.166;2022-12-18T01:32:59;41.80;;;20.98;;
25207;SDS011;13153;52.316;21.166;2022-12-18T01:35:25;46.38;;;21.35;;
25207;SDS011;13153;52.316;21.166;2022-12-18T01:37:53;48.30;;;21.83;;
25207;SDS011;13153;52.316;21.166;2022-12-18T01:40:20;48.05;;;21.27;;
25207;SDS011;13153;52.316;21.166;2022-12-18T01:42:50;51.80;;;22.67;;
25207;SDS011;13153;52.316;21.166;2022-12-18T01:45:23;45.42;;;21.35;;
25207;SDS011;13153;52.316;21.166;2022-12-18T01:47:55;46.80;;;21.30;;
25207;SDS011;13153;52.316;21.166;2022-12-18T01:55:45;43.38;;;19.90;;
25207;SDS011;13153;52.316;21.166;2022-12-18T01:58:16;44.97;;;20.70;;
25207;SDS011;13153;52.316;21.166;2022-12-18T02:00:43;46.17;;;20.33;;
25207;SDS011;13153;52.316;21.166;2022-12-18T02:03:10;44.67;;;19.85;;
25207;SDS011;13153;52.316;21.166;2022-12-18T02:14:16;45.13;;;20.10;;
25207;SDS011;13153;52.316;21.166;2022-12-18T02:16:59;43.75;;;20.45;;
25207;SDS011;13153;52.316;21.166;2022-12-18T02:20:02;45.40;;;20.77;;
25207;SDS011;13153;52.316;21.166;2022-12-18T02:28:51;46.10;;;20.17;;
25207;SDS011;13153;52.316;21.166;2022-12-18T02:31:25;45.45;;;20.30;;
25207;SDS011;13153;52.316;21.166;2022-12-18T02:33:55;44.92;;;19.63;;
25207;SDS011;13153;52.316;21.166;2022-12-18T02:36:25;42.08;;;19.25;;
25207;SDS011;13153;52.316;21.166;2022-12-18T02:38:55;44.92;;;20.30;;
25207;SDS011;13153;52.316;21.166;2022-12-18T02:41:24;49.05;;;21.35;;
25207;SDS011;13153;52.316;21.166;2022-12-18T02:43:59;44.05;;;20.08;;
25207;SDS011;13153;52.316;21.166;2022-12-18T02:46:35;40.67;;;19.88;;
25207;SDS011;13153;52.316;21.166;2022-12-18T03:01:34;46.45;;;19.98;;
25207;SDS011;13153;52.316;21.166;2022-12-18T03:04:09;44.03;;;19.95;;
25207;SDS011;13153;52.316;21.166;2022-12-18T03:07:01;42.70;;;20.08;;
25207;SDS011;13153;52.316;21.166;2022-12-18T03:09:34;44.95;;;20.70;;
25207;SDS011;13153;52.316;21.166;2022-12-18T03:12:07;43.50;;;20.30;;
25207;SDS011;13153;52.316;21.166;2022-12-18T03:14:49;47.75;;;20.35;;
25207;SDS011;13153;52.316;21.166;2022-12-18T03:17:33;45.35;;;20.35;;
25207;SDS011;13153;52.316;21.166;2022-12-18T03:20:10;46.50;;;21.27;;
25207;SDS011;13153;52.316;21.166;2022-12-18T03:22:42;44.67;;;20.35;;
25207;SDS011;13153;52.316;21.166;2022-12-18T03:25:14;47.55;;;21.48;;
25207;SDS011;13153;52.316;21.166;2022-12-18T03:27:46;41.40;;;19.42;;
25207;SDS011;13153;52.316;21.166;2022-12-18T03:30:16;40.13;;;19.15;;
25207;SDS011;13153;52.316;21.166;2022-12-18T03:35:31;40.70;;;18.30;;
25207;SDS011;13153;52.316;21.166;2022-12-18T03:38:04;37.40;;;18.77;;
25207;SDS011;13153;52.316;21.166;2022-12-18T03:46:33;38.05;;;18.42;;
25207;SDS011;13153;52.316;21.166;2022-12-18T03:49:25;39.60;;;19.13;;
25207;SDS011;13153;52.316;21.166;2022-12-18T03:52:26;41.58;;;19.30;;
25207;SDS011;13153;52.316;21.166;2022-12-18T03:55:29;40.38;;;18.35;;
25207;SDS011;13153;52.316;21.166;2022-12-18T03:57:59;40.00;;;19.88;;
25207;SDS011;13153;52.316;21.166;2022-12-18T04:00:30;36.75;;;18.70;;
25207;SDS011;13153;52.316;21.166;2022-12-18T04:02:57;39.58;;;19.05;;
25207;SDS011;13153;52.316;21.166;2022-12-18T04:05:26;41.67;;;19.17;;
25207;SDS011;13153;52.316;21.166;2022-12-18T04:07:57;40.63;;;18.80;;
25207;SDS011;13153;52.316;21.166;2022-12-18T04:10:23;41.08;;;19.08;;
25207;SDS011;13153;52.316;21.166;2022-12-18T04:12:49;41.10;;;19.15;;
25207;SDS011;13153;52.316;21.166;2022-12-18T04:15:15;43.72;;;19.35;;
25207;SDS011;13153;52.316;21.166;2022-12-18T04:17:43;41.97;;;19.48;;
25207;SDS011;13153;52.316;21.166;2022-12-18T04:20:14;41.28;;;18.88;;
25207;SDS011;13153;52.316;21.166;2022-12-18T04:22:41;41.67;;;19.25;;
25207;SDS011;13153;52.316;21.166;2022-12-18T04:25:07;39.33;;;18.70;;
25207;SDS011;13153;52.316;21.166;2022-12-18T04:27:33;35.45;;;18.02;;
25207;SDS011;13153;52.316;21.166;2022-12-18T04:29:59;40.20;;;19.33;;
25207;SDS011;13153;52.316;21.166;2022-12-18T04:32:25;41.92;;;19.25;;
25207;SDS011;13153;52.316;21.166;2022-12-18T04:34:51;41.25;;;19.30;;
25207;SDS011;13153;52.316;21.166;2022-12-18T04:37:17;37.72;;;19.05;;
25207;SDS011;13153;52.316;21.166;2022-12-18T04:39:43;35.28;;;17.20;;
25207;SDS011;13153;52.316;21.166;2022-12-18T04:42:09;36.92;;;17.85;;
25207;SDS011;13153;52.316;21.166;2022-12-18T04:44:35;35.80;;;17.02;;
25207;SDS011;13153;52.316;21.166;2022-12-18T04:47:01;37.33;;;17.80;;
25207;SDS011;13153;52.316;21.166;2022-12-18T04:49:27;38.50;;;18.30;;
25207;SDS011;13153;52.316;21.166;2022-12-18T04:51:53;37.22;;;17.70;;
25207;SDS011;13153;52.316;21.166;2022-12-18T04:54:19;36.70;;;17.25;;
25207;SDS011;13153;52.316;21.166;2022-12-18T04:56:44;33.25;;;16.60;;
25207;SDS011;13153;52.316;21.166;2022-12-18T04:59:10;36.95;;;17.70;;
25207;SDS011;13153;52.316;21.166;2022-12-18T05:01:36;33.55;;;16.00;;
25207;SDS011;13153;52.316;21.166;2022-12-18T05:04:02;36.50;;;17.38;;
25207;SDS011;13153;52.316;21.166;2022-12-18T05:06:28;35.97;;;17.02;;
25207;SDS011;13153;52.316;21.166;2022-12-18T05:08:54;36.65;;;17.08;;
25207;SDS011;13153;52.316;21.166;2022-12-18T05:11:20;34.50;;;16.77;;
25207;SDS011;13153;52.316;21.166;2022-12-18T05:13:46;32.40;;;15.95;;
25207;SDS011;13153;52.316;21.166;2022-12-18T05:16:12;33.55;;;16.23;;
25207;SDS011;13153;52.316;21.166;2022-12-18T05:18:39;30.90;;;16.35;;
25207;SDS011;13153;52.316;21.166;2022-12-18T05:21:06;31.38;;;15.43;;
25207;SDS011;13153;52.316;21.166;2022-12-18T05:23:32;33.85;;;16.08;;
25207;SDS011;13153;52.316;21.166;2022-12-18T05:26:00;29.30;;;15.25;;
25207;SDS011;13153;52.316;21.166;2022-12-18T05:28:29;36.13;;;16.67;;
25207;SDS011;13153;52.316;21.166;2022-12-18T05:30:58;31.67;;;16.08;;
25207;SDS011;13153;52.316;21.166;2022-12-18T05:33:28;33.03;;;15.48;;
25207;SDS011;13153;52.316;21.166;2022-12-18T05:35:58;31.70;;;15.57;;
25207;SDS011;13153;52.316;21.166;2022-12-18T05:38:27;38.40;;;17.58;;
25207;SDS011;13153;52.316;21.166;2022-12-18T05:43:38;32.72;;;15.95;;
25207;SDS011;13153;52.316;21.166;2022-12-18T05:46:06;36.22;;;17.52;;
25207;SDS011;13153;52.316;21.166;2022-12-18T05:48:36;35.90;;;17.40;;
25207;SDS011;13153;52.316;21.166;2022-12-18T05:51:06;33.35;;;16.27;;
25207;SDS011;13153;52.316;21.166;2022-12-18T05:53:37;33.13;;;15.95;;
25207;SDS011;13153;52.316;21.166;2022-12-18T05:56:06;34.08;;;15.85;;
25207;SDS011;13153;52.316;21.166;2022-12-18T05:58:50;33.95;;;15.75;;
25207;SDS011;13153;52.316;21.166;2022-12-18T06:01:19;36.35;;;16.55;;
25207;SDS011;13153;52.316;21.166;2022-12-18T06:03:49;32.45;;;14.98;;
25207;SDS011;13153;52.316;21.166;2022-12-18T06:06:16;32.25;;;15.18;;
25207;SDS011;13153;52.316;21.166;2022-12-18T06:08:48;30.85;;;15.32;;
25207;SDS011;13153;52.316;21.166;2022-12-18T06:11:19;32.25;;;15.23;;
25207;SDS011;13153;52.316;21.166;2022-12-18T06:13:51;31.20;;;14.80;;
25207;SDS011;13153;52.316;21.166;2022-12-18T06:16:21;32.58;;;15.00;;
25207;SDS011;13153;52.316;21.166;2022-12-18T06:18:47;28.48;;;14.18;;
25207;SDS011;13153;52.316;21.166;2022-12-18T06:21:12;30.88;;;15.07;;
25207;SDS011;13153;52.316;21.166;2022-12-18T06:23:38;31.48;;;15.50;;
25207;SDS011;13153;52.316;21.166;2022-12-18T06:26:05;32.30;;;15.48;;
25207;SDS011;13153;52.316;21.166;2022-12-18T06:28:36;35.10;;;16.27;;
25207;SDS011;13153;52.316;21.166;2022-12-18T06:31:02;40.72;;;19.50;;
25207;SDS011;13153;52.316;21.166;2022-12-18T06:33:30;32.40;;;16.05;;
25207;SDS011;13153;52.316;21.166;2022-12-18T06:36:03;32.67;;;18.35;;
25207;SDS011;13153;52.316;21.166;2022-12-18T06:38:33;42.00;;;20.40;;
25207;SDS011;13153;52.316;21.166;2022-12-18T06:41:00;65.45;;;29.48;;
25207;SDS011;13153;52.316;21.166;2022-12-18T06:43:34;39.80;;;19.98;;
25207;SDS011;13153;52.316;21.166;2022-12-18T06:46:01;35.53;;;16.75;;
25207;SDS011;13153;52.316;21.166;2022-12-18T06:48:29;33.92;;;17.00;;
25207;SDS011;13153;52.316;21.166;2022-12-18T06:50:55;47.58;;;21.65;;
25207;SDS011;13153;52.316;21.166;2022-12-18T06:53:22;56.92;;;23.58;;
25207;SDS011;13153;52.316;21.166;2022-12-18T06:55:47;48.72;;;21.45;;
25207;SDS011;13153;52.316;21.166;2022-12-18T06:58:13;43.75;;;19.35;;
25207;SDS011;13153;52.316;21.166;2022-12-18T07:00:39;36.92;;;17.35;;
25207;SDS011;13153;52.316;21.166;2022-12-18T07:03:06;38.55;;;17.27;;
25207;SDS011;13153;52.316;21.166;2022-12-18T07:05:31;33.53;;;16.17;;
25207;SDS011;13153;52.316;21.166;2022-12-18T07:07:57;34.53;;;16.00;;
25207;SDS011;13153;52.316;21.166;2022-12-18T07:10:23;33.42;;;16.40;;
25207;SDS011;13153;52.316;21.166;2022-12-18T07:12:50;38.30;;;17.00;;
25207;SDS011;13153;52.316;21.166;2022-12-18T07:15:15;38.67;;;18.08;;
25207;SDS011;13153;52.316;21.166;2022-12-18T07:17:41;47.35;;;19.80;;
25207;SDS011;13153;52.316;21.166;2022-12-18T07:20:07;58.92;;;24.20;;
25207;SDS011;13153;52.316;21.166;2022-12-18T07:22:34;58.67;;;23.75;;
25207;SDS011;13153;52.316;21.166;2022-12-18T07:24:59;44.13;;;19.30;;
25207;SDS011;13153;52.316;21.166;2022-12-18T07:27:25;39.50;;;18.40;;
25207;SDS011;13153;52.316;21.166;2022-12-18T07:29:51;43.33;;;18.23;;
25207;SDS011;13153;52.316;21.166;2022-12-18T07:32:17;42.10;;;18.85;;
25207;SDS011;13153;52.316;21.166;2022-12-18T07:34:42;40.63;;;18.67;;
25207;SDS011;13153;52.316;21.166;2022-12-18T07:37:08;38.38;;;18.20;;
25207;SDS011;13153;52.316;21.166;2022-12-18T07:39:34;49.85;;;19.77;;
25207;SDS011;13153;52.316;21.166;2022-12-18T07:42:00;70.72;;;29.35;;
25207;SDS011;13153;52.316;21.166;2022-12-18T07:44:44;47.85;;;21.10;;
25207;SDS011;13153;52.316;21.166;2022-12-18T07:47:11;47.20;;;21.13;;
25207;SDS011;13153;52.316;21.166;2022-12-18T07:49:37;45.55;;;20.17;;
25207;SDS011;13153;52.316;21.166;2022-12-18T07:52:02;47.63;;;21.45;;
25207;SDS011;13153;52.316;21.166;2022-12-18T07:54:28;53.95;;;22.45;;
25207;SDS011;13153;52.316;21.166;2022-12-18T07:56:54;57.70;;;23.90;;
25207;SDS011;13153;52.316;21.166;2022-12-18T07:59:20;55.92;;;23.95;;
25207;SDS011;13153;52.316;21.166;2022-12-18T08:01:46;54.50;;;23.98;;
25207;SDS011;13153;52.316;21.166;2022-12-18T08:04:11;51.95;;;22.38;;
25207;SDS011;13153;52.316;21.166;2022-12-18T08:06:37;52.30;;;22.63;;
25207;SDS011;13153;52.316;21.166;2022-12-18T08:09:03;50.88;;;22.50;;
25207;SDS011;13153;52.316;21.166;2022-12-18T08:11:29;53.33;;;23.30;;
25207;SDS011;13153;52.316;21.166;2022-12-18T08:13:55;50.97;;;22.90;;
25207;SDS011;13153;52.316;21.166;2022-12-18T08:16:21;58.95;;;25.40;;
25207;SDS011;13153;52.316;21.166;2022-12-18T08:18:47;60.70;;;24.48;;
25207;SDS011;13153;52.316;21.166;2022-12-18T08:21:15;52.53;;;23.25;;
25207;SDS011;13153;52.316;21.166;2022-12-18T08:23:46;54.60;;;23.67;;
25207;SDS011;13153;52.316;21.166;2022-12-18T08:26:12;59.50;;;25.23;;
25207;SDS011;13153;52.316;21.166;2022-12-18T08:28:39;71.50;;;27.58;;
25207;SDS011;13153;52.316;21.166;2022-12-18T08:31:06;70.03;;;26.83;;
25207;SDS011;13153;52.316;21.166;2022-12-18T08:33:32;70.47;;;26.70;;
25207;SDS011;13153;52.316;21.166;2022-12-18T08:35:59;63.97;;;26.10;;
25207;SDS011;13153;52.316;21.166;2022-12-18T08:38:26;69.90;;;27.67;;
25207;SDS011;13153;52.316;21.166;2022-12-18T08:41:02;67.97;;;27.05;;
25207;SDS011;13153;52.316;21.166;2022-12-18T08:43:31;75.20;;;27.60;;
25207;SDS011;13153;52.316;21.166;2022-12-18T08:46:16;80.43;;;29.13;;
25207;SDS011;13153;52.316;21.166;2022-12-18T08:48:46;78.55;;;28.50;;
25207;SDS011;13153;52.316;21.166;2022-12-18T08:51:15;84.32;;;30.13;;
25207;SDS011;13153;52.316;21.166;2022-12-18T08:53:42;82.63;;;31.17;;
25207;SDS011;13153;52.316;21.166;2022-12-18T08:56:09;77.00;;;29.13;;
25207;SDS011;13153;52.316;21.166;2022-12-18T08:58:35;81.95;;;30.90;;
25207;SDS011;13153;52.316;21.166;2022-12-18T09:01:02;87.75;;;31.40;;
25207;SDS011;13153;52.316;21.166;2022-12-18T09:03:31;88.10;;;32.70;;
25207;SDS011;13153;52.316;21.166;2022-12-18T09:05:57;98.07;;;34.67;;
25207;SDS011;13153;52.316;21.166;2022-12-18T09:08:24;87.13;;;32.80;;
25207;SDS011;13153;52.316;21.166;2022-12-18T09:10:51;87.55;;;33.13;;
25207;SDS011;13153;52.316;21.166;2022-12-18T09:13:17;88.35;;;32.42;;
25207;SDS011;13153;52.316;21.166;2022-12-18T09:15:43;94.70;;;33.25;;
25207;SDS011;13153;52.316;21.166;2022-12-18T09:18:13;89.75;;;32.15;;
25207;SDS011;13153;52.316;21.166;2022-12-18T09:20:40;96.90;;;33.60;;
25207;SDS011;13153;52.316;21.166;2022-12-18T09:23:07;94.30;;;33.13;;
25207;SDS011;13153;52.316;21.166;2022-12-18T09:25:34;93.43;;;33.85;;
25207;SDS011;13153;52.316;21.166;2022-12-18T09:28:14;92.35;;;33.53;;
25207;SDS011;13153;52.316;21.166;2022-12-18T09:30:44;99.53;;;34.80;;
25207;SDS011;13153;52.316;21.166;2022-12-18T09:33:13;100.82;;;35.80;;
25207;SDS011;13153;52.316;21.166;2022-12-18T09:35:40;110.93;;;36.13;;
25207;SDS011;13153;52.316;21.166;2022-12-18T09:38:18;103.93;;;36.53;;
25207;SDS011;13153;52.316;21.166;2022-12-18T09:40:48;104.40;;;36.30;;
25207;SDS011;13153;52.316;21.166;2022-12-18T09:43:33;113.00;;;41.03;;
25207;SDS011;13153;52.316;21.166;2022-12-18T09:46:10;112.82;;;38.95;;
25207;SDS011;13153;52.316;21.166;2022-12-18T09:49:00;109.15;;;37.72;;
25207;SDS011;13153;52.316;21.166;2022-12-18T09:51:37;106.50;;;38.33;;
25207;SDS011;13153;52.316;21.166;2022-12-18T09:54:11;103.18;;;37.22;;
25207;SDS011;13153;52.316;21.166;2022-12-18T09:56:46;101.15;;;37.22;;
25207;SDS011;13153;52.316;21.166;2022-12-18T09:59:56;102.22;;;38.17;;
25207;SDS011;13153;52.316;21.166;2022-12-18T10:19:24;93.95;;;33.35;;
25207;SDS011;13153;52.316;21.166;2022-12-18T10:22:33;83.18;;;32.50;;
25207;SDS011;13153;52.316;21.166;2022-12-18T10:25:04;77.05;;;31.50;;
25207;SDS011;13153;52.316;21.166;2022-12-18T10:27:55;84.53;;;31.60;;
25207;SDS011;13153;52.316;21.166;2022-12-18T10:30:32;76.22;;;29.95;;
25207;SDS011;13153;52.316;21.166;2022-12-18T10:33:02;96.47;;;35.10;;
25207;SDS011;13153;52.316;21.166;2022-12-18T10:35:28;84.07;;;32.83;;
25207;SDS011;13153;52.316;21.166;2022-12-18T10:43:29;84.93;;;33.47;;
25207;SDS011;13153;52.316;21.166;2022-12-18T10:48:36;79.50;;;31.30;;
25207;SDS011;13153;52.316;21.166;2022-12-18T10:51:19;81.28;;;32.47;;
25207;SDS011;13153;52.316;21.166;2022-12-18T10:54:32;79.45;;;29.90;;
25207;SDS011;13153;52.316;21.166;2022-12-18T10:56:47;76.28;;;29.70;;
25207;SDS011;13153;52.316;21.166;2022-12-18T10:59:15;75.50;;;30.27;;
25207;SDS011;13153;52.316;21.166;2022-12-18T11:01:58;73.70;;;29.92;;
25207;SDS011;13153;52.316;21.166;2022-12-18T11:04:28;79.22;;;31.85;;
25207;SDS011;13153;52.316;21.166;2022-12-18T11:09:27;80.57;;;31.42;;
25207;SDS011;13153;52.316;21.166;2022-12-18T11:11:58;83.65;;;31.90;;
25207;SDS011;13153;52.316;21.166;2022-12-18T11:14:29;77.70;;;30.70;;
25207;SDS011;13153;52.316;21.166;2022-12-18T11:17:35;79.13;;;31.88;;
25207;SDS011;13153;52.316;21.166;2022-12-18T11:20:05;84.00;;;31.63;;
25207;SDS011;13153;52.316;21.166;2022-12-18T11:22:56;77.55;;;31.48;;
25207;SDS011;13153;52.316;21.166;2022-12-18T11:25:25;82.00;;;31.13;;
25207;SDS011;13153;52.316;21.166;2022-12-18T11:27:53;73.72;;;31.58;;
25207;SDS011;13153;52.316;21.166;2022-12-18T11:33:10;78.43;;;32.42;;
25207;SDS011;13153;52.316;21.166;2022-12-18T11:35:59;78.45;;;31.33;;
25207;SDS011;13153;52.316;21.166;2022-12-18T11:44:48;80.85;;;32.95;;
25207;SDS011;13153;52.316;21.166;2022-12-18T11:48:01;85.32;;;32.88;;
25207;SDS011;13153;52.316;21.166;2022-12-18T11:53:20;85.70;;;33.55;;
25207;SDS011;13153;52.316;21.166;2022-12-18T11:55:50;84.40;;;33.17;;
25207;SDS011;13153;52.316;21.166;2022-12-18T11:58:34;86.95;;;33.72;;
25207;SDS011;13153;52.316;21.166;2022-12-18T12:04:24;105.75;;;41.75;;
25207;SDS011;13153;52.316;21.166;2022-12-18T12:13:30;91.13;;;36.33;;
25207;SDS011;13153;52.316;21.166;2022-12-18T12:21:58;83.00;;;34.53;;
25207;SDS011;13153;52.316;21.166;2022-12-18T12:30:36;93.13;;;39.05;;
25207;SDS011;13153;52.316;21.166;2022-12-18T12:33:44;98.32;;;40.05;;
25207;SDS011;13153;52.316;21.166;2022-12-18T12:39:40;85.47;;;35.65;;
25207;SDS011;13153;52.316;21.166;2022-12-18T12:42:12;95.50;;;39.65;;
25207;SDS011;13153;52.316;21.166;2022-12-18T12:45:31;84.57;;;36.08;;
25207;SDS011;13153;52.316;21.166;2022-12-18T12:51:10;78.15;;;34.47;;
25207;SDS011;13153;52.316;21.166;2022-12-18T12:53:43;84.25;;;35.88;;
25207;SDS011;13153;52.316;21.166;2022-12-18T12:56:11;91.05;;;36.45;;
25207;SDS011;13153;52.316;21.166;2022-12-18T12:58:44;93.35;;;36.55;;
25207;SDS011;13153;52.316;21.166;2022-12-18T13:01:54;92.32;;;36.33;;
25207;SDS011;13153;52.316;21.166;2022-12-18T13:07:47;93.47;;;36.17;;
25207;SDS011;13153;52.316;21.166;2022-12-18T13:10:38;89.45;;;36.67;;
25207;SDS011;13153;52.316;21.166;2022-12-18T13:13:08;102.05;;;38.30;;
25207;SDS011;13153;52.316;21.166;2022-12-18T13:18:32;95.68;;;37.67;;
25207;SDS011;13153;52.316;21.166;2022-12-18T13:25:51;101.82;;;40.08;;
25207;SDS011;13153;52.316;21.166;2022-12-18T13:30:59;103.68;;;39.70;;
25207;SDS011;13153;52.316;21.166;2022-12-18T13:38:40;102.28;;;40.42;;
25207;SDS011;13153;52.316;21.166;2022-12-18T13:43:53;106.13;;;43.33;;
25207;SDS011;13153;52.316;21.166;2022-12-18T13:51:43;112.50;;;42.70;;
25207;SDS011;13153;52.316;21.166;2022-12-18T13:57:11;112.05;;;43.42;;
25207;SDS011;13153;52.316;21.166;2022-12-18T14:00:23;111.93;;;41.80;;
25207;SDS011;13153;52.316;21.166;2022-12-18T14:02:53;113.65;;;41.88;;
25207;SDS011;13153;52.316;21.166;2022-12-18T14:05:22;113.88;;;43.13;;
25207;SDS011;13153;52.316;21.166;2022-12-18T14:07:48;108.72;;;42.05;;
25207;SDS011;13153;52.316;21.166;2022-12-18T14:10:15;111.82;;;42.67;;
25207;SDS011;13153;52.316;21.166;2022-12-18T14:12:44;115.28;;;43.28;;
25207;SDS011;13153;52.316;21.166;2022-12-18T14:15:27;115.78;;;42.63;;
25207;SDS011;13153;52.316;21.166;2022-12-18T14:18:23;109.47;;;41.08;;
25207;SDS011;13153;52.316;21.166;2022-12-18T14:20:54;103.90;;;41.83;;
25207;SDS011;13153;52.316;21.166;2022-12-18T14:26:00;106.80;;;43.22;;
25207;SDS011;13153;52.316;21.166;2022-12-18T14:28:44;106.13;;;40.63;;
25207;SDS011;13153;52.316;21.166;2022-12-18T14:36:40;134.07;;;49.25;;
25207;SDS011;13153;52.316;21.166;2022-12-18T14:39:12;123.85;;;46.38;;
25207;SDS011;13153;52.316;21.166;2022-12-18T14:41:43;123.45;;;46.75;;
25207;SDS011;13153;52.316;21.166;2022-12-18T14:44:10;130.93;;;48.90;;
25207;SDS011;13153;52.316;21.166;2022-12-18T14:46:38;138.10;;;49.42;;
25207;SDS011;13153;52.316;21.166;2022-12-18T14:52:00;104.47;;;40.58;;
25207;SDS011;13153;52.316;21.166;2022-12-18T14:54:30;105.05;;;41.97;;
25207;SDS011;13153;52.316;21.166;2022-12-18T14:57:02;103.18;;;40.22;;
25207;SDS011;13153;52.316;21.166;2022-12-18T14:59:41;108.97;;;39.15;;
25207;SDS011;13153;52.316;21.166;2022-12-18T15:02:15;104.60;;;39.78;;
25207;SDS011;13153;52.316;21.166;2022-12-18T15:07:39;103.75;;;39.25;;
25207;SDS011;13153;52.316;21.166;2022-12-18T15:10:16;101.45;;;39.60;;
25207;SDS011;13153;52.316;21.166;2022-12-18T15:15:45;107.90;;;41.58;;
25207;SDS011;13153;52.316;21.166;2022-12-18T15:18:14;112.88;;;42.20;;
25207;SDS011;13153;52.316;21.166;2022-12-18T15:20:44;116.70;;;44.50;;
25207;SDS011;13153;52.316;21.166;2022-12-18T15:26:05;120.18;;;45.47;;
25207;SDS011;13153;52.316;21.166;2022-12-18T15:34:11;118.32;;;43.15;;
25207;SDS011;13153;52.316;21.166;2022-12-18T15:36:47;112.95;;;42.95;;
25207;SDS011;13153;52.316;21.166;2022-12-18T15:39:15;123.18;;;43.80;;
25207;SDS011;13153;52.316;21.166;2022-12-18T15:41:41;123.25;;;44.15;;
25207;SDS011;13153;52.316;21.166;2022-12-18T15:44:27;111.65;;;41.50;;
25207;SDS011;13153;52.316;21.166;2022-12-18T15:46:53;111.50;;;42.00;;
25207;SDS011;13153;52.316;21.166;2022-12-18T15:49:18;114.65;;;42.72;;
25207;SDS011;13153;52.316;21.166;2022-12-18T15:51:44;106.68;;;40.03;;
25207;SDS011;13153;52.316;21.166;2022-12-18T15:54:17;106.88;;;39.22;;
25207;SDS011;13153;52.316;21.166;2022-12-18T15:57:03;106.43;;;39.20;;
25207;SDS011;13153;52.316;21.166;2022-12-18T15:59:47;107.00;;;40.83;;
25207;SDS011;13153;52.316;21.166;2022-12-18T16:02:14;99.28;;;39.03;;
25207;SDS011;13153;52.316;21.166;2022-12-18T16:04:43;176.85;;;67.38;;
25207;SDS011;13153;52.316;21.166;2022-12-18T16:07:10;120.70;;;45.15;;
25207;SDS011;13153;52.316;21.166;2022-12-18T16:09:37;104.10;;;40.05;;
25207;SDS011;13153;52.316;21.166;2022-12-18T16:12:03;96.43;;;36.17;;
25207;SDS011;13153;52.316;21.166;2022-12-18T16:14:31;103.85;;;39.75;;
25207;SDS011;13153;52.316;21.166;2022-12-18T16:16:58;108.00;;;40.28;;
25207;SDS011;13153;52.316;21.166;2022-12-18T16:19:28;98.20;;;39.88;;
25207;SDS011;13153;52.316;21.166;2022-12-18T16:21:55;131.07;;;46.08;;
25207;SDS011;13153;52.316;21.166;2022-12-18T16:24:24;113.63;;;43.35;;
25207;SDS011;13153;52.316;21.166;2022-12-18T16:26:53;111.97;;;43.60;;
25207;SDS011;13153;52.316;21.166;2022-12-18T16:29:21;107.85;;;42.40;;
25207;SDS011;13153;52.316;21.166;2022-12-18T16:31:51;102.68;;;40.92;;
25207;SDS011;13153;52.316;21.166;2022-12-18T16:34:19;115.70;;;46.63;;
25207;SDS011;13153;52.316;21.166;2022-12-18T16:36:49;109.45;;;43.55;;
25207;SDS011;13153;52.316;21.166;2022-12-18T16:39:15;99.25;;;39.92;;
25207;SDS011;13153;52.316;21.166;2022-12-18T16:41:42;106.55;;;40.50;;
25207;SDS011;13153;52.316;21.166;2022-12-18T16:44:08;98.47;;;38.80;;
25207;SDS011;13153;52.316;21.166;2022-12-18T16:46:35;108.47;;;39.75;;
25207;SDS011;13153;52.316;21.166;2022-12-18T16:49:01;98.38;;;38.22;;
25207;SDS011;13153;52.316;21.166;2022-12-18T16:51:28;96.47;;;38.45;;
25207;SDS011;13153;52.316;21.166;2022-12-18T16:53:54;129.20;;;48.28;;
25207;SDS011;13153;52.316;21.166;2022-12-18T16:56:21;107.95;;;40.70;;
25207;SDS011;13153;52.316;21.166;2022-12-18T16:58:51;130.30;;;50.20;;
25207;SDS011;13153;52.316;21.166;2022-12-18T17:01:18;119.63;;;45.03;;
25207;SDS011;13153;52.316;21.166;2022-12-18T17:03:55;96.10;;;38.35;;
25207;SDS011;13153;52.316;21.166;2022-12-18T17:06:24;112.47;;;44.70;;
25207;SDS011;13153;52.316;21.166;2022-12-18T17:08:58;106.22;;;41.75;;
25207;SDS011;13153;52.316;21.166;2022-12-18T17:11:29;108.15;;;37.78;;
25207;SDS011;13153;52.316;21.166;2022-12-18T17:13:57;98.65;;;37.85;;
25207;SDS011;13153;52.316;21.166;2022-12-18T17:16:24;98.75;;;36.17;;
25207;SDS011;13153;52.316;21.166;2022-12-18T17:18:53;89.57;;;34.78;;